createdAt,value
2022-12-31T00:01:37.625Z,1.03
2022-12-31T00:04:05.600Z,0.77
2022-12-31T00:06:35.094Z,0.73
2022-12-31T00:09:06.589Z,1.00
2022-12-31T00:11:35.262Z,0.80
2022-12-31T00:14:03.429Z,1.20
2022-12-31T00:16:33.372Z,0.97
2022-12-31T00:19:02.036Z,1.27
2022-12-31T00:21:31.649Z,0.80
2022-12-31T00:23:59.228Z,0.83
2022-12-31T00:26:30.368Z,1.23
2022-12-31T00:29:00.182Z,1.33
2022-12-31T00:31:29.690Z,1.00
2022-12-31T00:33:57.685Z,2.00
2022-12-31T00:36:27.399Z,0.87
2022-12-31T00:38:56.709Z,1.10
2022-12-31T00:41:25.278Z,1.10
2022-12-31T00:43:54.514Z,1.27
2022-12-31T00:46:22.681Z,1.00
2022-12-31T00:48:50.407Z,1.00
2022-12-31T00:51:20.110Z,1.00
2022-12-31T00:53:47.633Z,0.97
2022-12-31T00:56:17.005Z,0.80
2022-12-31T00:58:45.239Z,1.43
2022-12-31T01:01:18.187Z,1.17
2022-12-31T01:03:46.723Z,1.20
2022-12-31T01:06:14.651Z,1.00
2022-12-31T01:08:42.337Z,1.30
2022-12-31T01:11:22.513Z,1.40
2022-12-31T01:13:52.842Z,1.00
2022-12-31T01:16:24.220Z,1.50
2022-12-31T01:18:52.035Z,1.10
2022-12-31T01:21:20.227Z,1.47
2022-12-31T01:23:47.929Z,1.40
2022-12-31T01:26:18.031Z,1.20
2022-12-31T01:28:46.276Z,1.10
2022-12-31T01:31:16.625Z,1.03
2022-12-31T01:33:46.475Z,1.20
2022-12-31T01:36:21.727Z,1.20
2022-12-31T01:38:53.600Z,1.00
2022-12-31T01:41:23.425Z,1.07
2022-12-31T01:43:54.280Z,1.17
2022-12-31T01:46:29.410Z,1.17
2022-12-31T01:49:03.125Z,1.53
2022-12-31T01:51:34.365Z,1.07
2022-12-31T01:54:05.957Z,0.87
2022-12-31T01:56:35.341Z,1.77
2022-12-31T01:59:07.656Z,1.20
2022-12-31T02:01:38.425Z,1.00
2022-12-31T02:04:10.596Z,0.60
2022-12-31T02:06:42.353Z,0.50
2022-12-31T02:09:10.594Z,1.67
2022-12-31T02:11:38.361Z,0.70
2022-12-31T02:14:10.394Z,0.80
2022-12-31T02:16:47.068Z,1.00
2022-12-31T02:19:52.012Z,0.80
2022-12-31T02:22:37.835Z,1.70
2022-12-31T02:25:26.476Z,1.10
2022-12-31T02:28:07.523Z,0.70
2022-12-31T02:30:38.169Z,1.40
2022-12-31T02:33:14.125Z,0.80
2022-12-31T02:35:49.720Z,1.60
2022-12-31T02:38:22.027Z,0.73
2022-12-31T02:40:50.039Z,0.73
2022-12-31T02:43:17.684Z,0.90
2022-12-31T02:45:51.416Z,0.90
2022-12-31T02:48:30.346Z,0.80
2022-12-31T02:51:07.879Z,0.97
2022-12-31T02:54:01.242Z,1.50
2022-12-31T02:56:35.526Z,0.97
2022-12-31T02:59:25.175Z,1.87
2022-12-31T03:02:19.380Z,1.03
2022-12-31T03:04:52.286Z,1.23
2022-12-31T03:07:22.338Z,1.13
2022-12-31T03:09:50.720Z,1.03
2022-12-31T03:12:38.985Z,1.93
2022-12-31T03:15:19.781Z,2.90
2022-12-31T03:17:59.390Z,1.17
2022-12-31T03:20:47.770Z,0.80
2022-12-31T03:23:19.014Z,0.70
2022-12-31T03:25:46.137Z,1.10
2022-12-31T03:28:15.562Z,1.07
2022-12-31T03:30:44.929Z,0.70
2022-12-31T03:33:16.243Z,1.10
2022-12-31T03:35:46.551Z,0.80
2022-12-31T03:38:15.282Z,1.37
2022-12-31T03:40:44.307Z,1.80
2022-12-31T03:43:12.219Z,0.60
2022-12-31T03:45:40.376Z,0.57
2022-12-31T03:48:10.522Z,0.77
2022-12-31T03:50:39.436Z,0.70
2022-12-31T03:53:07.410Z,0.70
2022-12-31T03:55:34.955Z,1.37
2022-12-31T03:58:02.578Z,0.80
2022-12-31T04:00:30.260Z,0.77
2022-12-31T04:02:57.994Z,1.50
2022-12-31T04:05:25.925Z,0.73
2022-12-31T04:07:55.844Z,1.20
2022-12-31T04:10:23.580Z,0.67
2022-12-31T04:12:51.125Z,1.07
2022-12-31T04:15:20.268Z,0.80
2022-12-31T04:17:48.841Z,1.40
2022-12-31T04:20:17.191Z,0.87
2022-12-31T04:22:44.929Z,0.53
2022-12-31T04:25:13.792Z,0.80
2022-12-31T04:27:43.544Z,1.47
2022-12-31T04:30:13.450Z,0.70
2022-12-31T04:32:41.336Z,1.80
2022-12-31T04:35:10.285Z,0.70
2022-12-31T04:37:37.910Z,0.73
2022-12-31T04:40:07.071Z,0.97
2022-12-31T04:42:36.542Z,0.63
2022-12-31T04:45:05.322Z,1.13
2022-12-31T04:47:32.992Z,0.70
2022-12-31T04:50:00.537Z,0.63
2022-12-31T04:52:28.351Z,0.80
2022-12-31T04:54:55.933Z,0.97
2022-12-31T04:57:23.459Z,0.70
2022-12-31T04:59:52.298Z,0.63
2022-12-31T05:02:19.941Z,0.97
2022-12-31T05:04:47.618Z,0.80
2022-12-31T05:07:15.229Z,0.87
2022-12-31T05:09:42.858Z,0.60
2022-12-31T05:12:10.356Z,0.50
2022-12-31T05:14:37.872Z,0.57
2022-12-31T05:17:06.879Z,0.70
2022-12-31T05:19:34.524Z,0.90
2022-12-31T05:22:19.561Z,1.10
2022-12-31T05:24:47.057Z,0.77
2022-12-31T05:27:15.461Z,1.27
2022-12-31T05:29:42.977Z,1.20
2022-12-31T05:32:11.796Z,0.80
2022-12-31T05:34:39.320Z,1.00
2022-12-31T05:37:06.959Z,0.80
2022-12-31T05:39:34.560Z,0.70
2022-12-31T05:42:02.201Z,0.90
2022-12-31T05:44:29.749Z,1.00
2022-12-31T05:46:57.302Z,0.40
2022-12-31T05:49:26.209Z,1.23
2022-12-31T05:51:53.745Z,0.70
2022-12-31T05:54:21.608Z,0.47
2022-12-31T05:56:49.188Z,0.53
2022-12-31T05:59:16.929Z,0.23
2022-12-31T06:01:44.479Z,0.30
2022-12-31T06:04:12.064Z,0.70
2022-12-31T06:06:41.417Z,0.70
2022-12-31T06:09:08.959Z,0.50
2022-12-31T06:11:36.628Z,0.30
2022-12-31T06:14:04.472Z,0.40
2022-12-31T06:16:32.089Z,0.20
2022-12-31T06:19:01.601Z,0.50
2022-12-31T06:21:30.544Z,0.50
2022-12-31T06:23:59.596Z,0.50
2022-12-31T06:26:27.655Z,0.53
2022-12-31T06:28:55.456Z,0.37
2022-12-31T06:31:23.077Z,0.40
2022-12-31T06:33:50.606Z,0.40
2022-12-31T06:36:19.106Z,0.30
2022-12-31T06:38:46.697Z,0.23
2022-12-31T06:41:18.304Z,0.37
2022-12-31T06:43:46.461Z,0.20
2022-12-31T06:46:17.712Z,0.30
2022-12-31T06:48:46.077Z,0.80
2022-12-31T06:51:17.405Z,0.40
2022-12-31T06:53:45.448Z,0.77
2022-12-31T06:56:18.563Z,0.30
2022-12-31T06:58:47.084Z,0.30
2022-12-31T07:01:34.378Z,0.60
2022-12-31T07:04:09.587Z,1.80
2022-12-31T07:06:44.083Z,0.30
2022-12-31T07:09:19.831Z,0.60
2022-12-31T07:11:58.053Z,0.30
2022-12-31T07:14:33.117Z,0.20
2022-12-31T07:17:07.870Z,0.20
2022-12-31T07:19:48.216Z,0.27
2022-12-31T07:22:20.580Z,0.20
2022-12-31T07:24:48.794Z,0.30
2022-12-31T07:27:35.709Z,0.40
2022-12-31T07:30:07.316Z,0.33
2022-12-31T07:32:50.537Z,0.40
2022-12-31T07:35:32.889Z,2.23
2022-12-31T07:38:13.953Z,1.73
2022-12-31T07:40:57.734Z,0.40
2022-12-31T07:43:34.042Z,0.23
2022-12-31T07:46:13.493Z,2.37
2022-12-31T07:48:41.513Z,0.90
2022-12-31T07:51:11.175Z,0.50
2022-12-31T07:53:40.318Z,2.00
2022-12-31T07:56:10.702Z,0.70
2022-12-31T07:58:56.737Z,0.27
2022-12-31T08:01:34.277Z,2.40
2022-12-31T08:04:07.151Z,1.03
2022-12-31T08:06:42.368Z,0.53
2022-12-31T08:09:31.565Z,0.50
2022-12-31T08:12:00.742Z,0.33
2022-12-31T08:14:30.811Z,0.60
2022-12-31T08:16:58.953Z,0.53
2022-12-31T08:19:30.540Z,1.43
2022-12-31T08:22:21.883Z,2.53
2022-12-31T08:25:00.182Z,0.43
2022-12-31T08:27:36.772Z,0.83
2022-12-31T08:30:08.942Z,2.73
2022-12-31T08:32:43.933Z,0.97
2022-12-31T08:35:29.162Z,0.20
2022-12-31T08:38:07.362Z,3.77
2022-12-31T08:40:47.030Z,0.30
2022-12-31T08:43:33.966Z,1.67
2022-12-31T08:46:04.421Z,0.60
2022-12-31T08:48:38.456Z,1.10
2022-12-31T08:51:06.885Z,0.67
2022-12-31T08:53:35.123Z,1.23
2022-12-31T08:56:08.656Z,0.40
2022-12-31T08:58:47.520Z,0.40
2022-12-31T09:01:22.191Z,0.50
2022-12-31T09:04:07.023Z,0.90
2022-12-31T09:06:39.063Z,0.53
2022-12-31T09:09:17.296Z,2.93
2022-12-31T09:11:55.462Z,0.53
2022-12-31T09:14:41.661Z,0.90
2022-12-31T09:17:28.266Z,0.60
2022-12-31T09:19:56.549Z,0.50
2022-12-31T09:22:24.645Z,0.47
2022-12-31T09:24:52.699Z,0.73
2022-12-31T09:27:28.302Z,1.37
2022-12-31T09:30:03.627Z,1.03
2022-12-31T09:32:42.998Z,1.13
2022-12-31T09:35:20.230Z,0.87
2022-12-31T09:37:50.127Z,1.07
2022-12-31T09:40:47.395Z,0.40
2022-12-31T09:43:51.608Z,0.90
2022-12-31T09:46:58.285Z,0.90
2022-12-31T09:50:00.820Z,0.83
2022-12-31T09:52:38.161Z,0.50
2022-12-31T09:55:31.821Z,0.30
2022-12-31T09:58:13.637Z,1.00
2022-12-31T10:00:46.670Z,2.70
2022-12-31T10:03:30.561Z,1.33
2022-12-31T10:06:15.556Z,1.20
2022-12-31T10:09:01.466Z,1.30
2022-12-31T10:11:53.190Z,1.50
2022-12-31T10:14:36.153Z,2.60
2022-12-31T10:17:19.602Z,0.83
2022-12-31T10:20:02.955Z,0.90
2022-12-31T10:22:45.125Z,1.63
2022-12-31T10:25:38.610Z,3.10
2022-12-31T10:28:19.217Z,0.77
2022-12-31T10:30:53.968Z,0.53
2022-12-31T10:33:33.962Z,1.40
2022-12-31T10:36:09.956Z,0.93
2022-12-31T10:38:55.413Z,1.13
2022-12-31T10:41:55.468Z,0.97
2022-12-31T10:44:46.290Z,1.43
2022-12-31T10:47:43.287Z,0.93
2022-12-31T10:50:34.650Z,0.60
2022-12-31T10:53:25.680Z,1.43
2022-12-31T10:56:50.419Z,2.87
2022-12-31T10:59:59.308Z,0.50
2022-12-31T11:03:14.784Z,1.53
2022-12-31T11:06:07.096Z,1.10
2022-12-31T11:08:55.997Z,1.57
2022-12-31T11:11:33.618Z,1.63
2022-12-31T11:14:32.448Z,1.40
2022-12-31T11:17:21.531Z,0.60
2022-12-31T11:20:03.727Z,1.70
2022-12-31T11:22:44.566Z,1.10
2022-12-31T11:25:23.911Z,1.93
2022-12-31T11:28:04.316Z,2.20
2022-12-31T11:30:45.684Z,1.47
2022-12-31T11:33:30.498Z,0.63
2022-12-31T11:36:13.577Z,0.60
2022-12-31T11:38:51.837Z,4.73
2022-12-31T11:41:29.693Z,1.53
2022-12-31T11:44:03.767Z,1.53
2022-12-31T11:46:44.662Z,0.60
2022-12-31T11:49:30.602Z,0.70
2022-12-31T11:52:25.989Z,1.13
2022-12-31T11:55:16.741Z,1.80
2022-12-31T11:57:49.744Z,2.30
2022-12-31T12:00:20.539Z,1.13
2022-12-31T12:02:49.896Z,2.37
2022-12-31T12:05:21.151Z,0.60
2022-12-31T12:07:48.855Z,1.77
2022-12-31T12:10:27.879Z,1.90
2022-12-31T12:13:00.248Z,0.53
2022-12-31T12:15:32.788Z,2.20
2022-12-31T12:18:07.164Z,1.27
2022-12-31T12:20:37.521Z,3.00
2022-12-31T12:23:15.333Z,3.37
2022-12-31T12:25:45.756Z,1.83
2022-12-31T12:28:21.761Z,2.70
2022-12-31T12:30:55.670Z,0.73
2022-12-31T12:33:23.669Z,1.03
2022-12-31T12:35:51.699Z,2.57
2022-12-31T12:38:21.340Z,2.77
2022-12-31T12:40:58.384Z,1.23
2022-12-31T12:43:28.054Z,1.30
2022-12-31T12:46:00.238Z,2.27
2022-12-31T12:48:35.632Z,1.77
2022-12-31T12:51:11.242Z,0.97
2022-12-31T12:53:49.863Z,1.77
2022-12-31T12:56:30.571Z,0.90
2022-12-31T12:59:20.339Z,0.97
2022-12-31T13:01:56.928Z,2.03
2022-12-31T13:04:41.717Z,0.60
2022-12-31T13:07:25.791Z,0.80
2022-12-31T13:10:10.867Z,1.10
2022-12-31T13:13:22.728Z,0.80
2022-12-31T13:15:42.664Z,1.00
2022-12-31T13:18:22.974Z,1.23
2022-12-31T13:20:56.866Z,1.87
2022-12-31T13:23:39.319Z,3.40
2022-12-31T13:26:15.547Z,2.23
2022-12-31T13:28:47.924Z,1.60
2022-12-31T13:31:18.699Z,1.23
2022-12-31T13:33:51.876Z,1.23
2022-12-31T13:36:22.997Z,2.23
2022-12-31T13:38:53.009Z,1.20
2022-12-31T13:41:25.930Z,0.90
2022-12-31T13:44:01.939Z,1.70
2022-12-31T13:46:39.795Z,0.80
2022-12-31T13:49:16.634Z,1.90
2022-12-31T13:51:48.107Z,1.70
2022-12-31T13:54:31.928Z,1.43
2022-12-31T13:57:05.588Z,1.87
2022-12-31T13:59:39.205Z,1.37
2022-12-31T14:02:26.483Z,2.00
2022-12-31T14:05:00.157Z,1.50
2022-12-31T14:07:38.927Z,1.63
2022-12-31T14:10:14.232Z,1.33
2022-12-31T14:12:53.207Z,0.90
2022-12-31T14:15:27.020Z,1.93
2022-12-31T14:18:04.466Z,1.20
2022-12-31T14:20:42.995Z,2.13
2022-12-31T14:23:21.050Z,1.80
2022-12-31T14:25:52.400Z,1.63
2022-12-31T14:28:25.152Z,0.93
2022-12-31T14:30:59.773Z,1.27
2022-12-31T14:33:46.254Z,1.47
2022-12-31T14:36:25.521Z,1.70
2022-12-31T14:39:06.272Z,1.50
2022-12-31T14:41:45.963Z,2.37
2022-12-31T14:44:29.304Z,2.67
2022-12-31T14:47:12.317Z,2.27
2022-12-31T14:49:50.605Z,1.07
2022-12-31T14:52:25.172Z,0.90
2022-12-31T14:55:01.482Z,1.30
2022-12-31T14:58:01.442Z,2.97
2022-12-31T15:00:28.598Z,1.37
2022-12-31T15:03:00.447Z,1.43
2022-12-31T15:05:29.905Z,2.73
2022-12-31T15:08:12.800Z,2.80
2022-12-31T15:10:49.153Z,2.60
2022-12-31T15:13:28.997Z,1.77
2022-12-31T15:16:12.165Z,1.90
2022-12-31T15:18:58.851Z,2.23
2022-12-31T15:21:41.236Z,2.60
2022-12-31T15:24:20.121Z,1.87
2022-12-31T15:26:51.353Z,1.77
2022-12-31T15:29:27.174Z,1.07
2022-12-31T15:31:56.274Z,3.63
2022-12-31T15:34:32.875Z,1.43
2022-12-31T15:37:02.441Z,1.20
2022-12-31T15:39:42.167Z,2.30
2022-12-31T15:42:38.737Z,1.90
2022-12-31T15:45:12.697Z,1.83
2022-12-31T15:47:44.031Z,2.40
2022-12-31T15:50:18.033Z,3.83
2022-12-31T15:52:49.831Z,1.23
2022-12-31T15:55:26.256Z,2.80
2022-12-31T15:58:00.237Z,1.33
2022-12-31T16:00:38.296Z,2.27
2022-12-31T16:03:11.539Z,2.33
2022-12-31T16:05:40.521Z,1.60
2022-12-31T16:08:08.153Z,1.23
2022-12-31T16:10:36.226Z,2.57
2022-12-31T16:13:06.257Z,2.43
2022-12-31T16:15:35.310Z,3.30
2022-12-31T16:18:05.492Z,3.43
2022-12-31T16:20:35.564Z,1.30
2022-12-31T16:23:20.967Z,3.10
2022-12-31T16:25:49.247Z,2.20
2022-12-31T16:28:20.038Z,1.40
2022-12-31T16:31:03.548Z,1.47
2022-12-31T16:33:31.749Z,3.07
2022-12-31T16:36:01.637Z,2.77
2022-12-31T16:38:35.357Z,1.37
2022-12-31T16:41:17.811Z,3.23
2022-12-31T16:43:46.742Z,1.53
2022-12-31T16:46:19.294Z,2.60
2022-12-31T16:48:49.518Z,3.10
2022-12-31T16:51:21.006Z,3.53
2022-12-31T16:53:50.486Z,2.10
2022-12-31T16:56:25.268Z,1.97
2022-12-31T16:59:00.506Z,3.00
2022-12-31T17:01:31.017Z,3.40
2022-12-31T17:04:01.189Z,3.63
2022-12-31T17:06:32.174Z,2.13
2022-12-31T17:09:14.961Z,2.33
2022-12-31T17:11:50.425Z,1.97
2022-12-31T17:14:20.400Z,2.50
2022-12-31T17:17:03.288Z,2.97
2022-12-31T17:19:39.733Z,3.60
2022-12-31T17:22:14.153Z,2.87
2022-12-31T17:24:43.135Z,6.70
2022-12-31T17:27:11.273Z,4.63
2022-12-31T17:29:39.038Z,4.30
2022-12-31T17:32:07.899Z,2.73
2022-12-31T17:34:40.083Z,3.97
2022-12-31T17:37:24.443Z,3.90
2022-12-31T17:39:54.617Z,3.00
2022-12-31T17:42:28.222Z,4.13
2022-12-31T17:44:59.839Z,3.23
2022-12-31T17:47:34.540Z,1.90
2022-12-31T17:50:07.161Z,2.13
2022-12-31T17:52:34.730Z,1.40
2022-12-31T17:55:03.800Z,3.67
2022-12-31T17:57:31.422Z,2.70
2022-12-31T17:59:58.966Z,3.87
2022-12-31T18:02:26.555Z,3.30
2022-12-31T18:04:54.200Z,5.33
2022-12-31T18:07:21.755Z,2.70
2022-12-31T18:09:49.318Z,3.87
2022-12-31T18:12:18.964Z,3.30
2022-12-31T18:14:46.649Z,3.43
2022-12-31T18:17:16.805Z,2.53
2022-12-31T18:22:32.070Z,2.57
2022-12-31T18:24:59.601Z,3.57
2022-12-31T18:27:30.577Z,3.67
2022-12-31T18:30:04.444Z,3.13
2022-12-31T18:32:33.845Z,4.43
2022-12-31T18:35:01.994Z,3.50
2022-12-31T18:37:30.176Z,3.37
2022-12-31T18:39:57.793Z,5.00
2022-12-31T18:42:29.277Z,3.13
2022-12-31T18:44:56.932Z,3.23
2022-12-31T18:47:24.515Z,3.30
2022-12-31T18:49:52.316Z,3.57
2022-12-31T18:52:22.251Z,5.17
2022-12-31T18:54:50.272Z,2.27
2022-12-31T18:57:17.942Z,3.07
2022-12-31T18:59:46.896Z,5.53
2022-12-31T19:02:17.288Z,2.83
2022-12-31T19:04:44.876Z,5.53
2022-12-31T19:07:12.585Z,18.77
2022-12-31T19:09:49.086Z,15.17
2022-12-31T19:12:19.095Z,6.87
2022-12-31T19:14:48.043Z,9.37
2022-12-31T19:17:15.639Z,22.47
2022-12-31T19:19:43.153Z,7.17
2022-12-31T19:22:15.724Z,5.50
2022-12-31T19:24:43.283Z,6.23
2022-12-31T19:27:11.138Z,9.17
2022-12-31T19:29:38.759Z,14.10
2022-12-31T19:32:08.035Z,5.67
2022-12-31T19:34:35.645Z,34.83
2022-12-31T19:37:03.212Z,9.90
2022-12-31T19:39:30.830Z,9.37
2022-12-31T19:41:59.440Z,7.20
2022-12-31T19:44:27.756Z,3.23
2022-12-31T19:46:55.339Z,5.03
2022-12-31T19:49:24.361Z,4.67
2022-12-31T19:51:52.074Z,2.67
2022-12-31T19:54:19.614Z,2.53
2022-12-31T19:56:47.213Z,4.10
2022-12-31T19:59:14.766Z,5.13
2022-12-31T20:01:42.461Z,2.87
2022-12-31T20:04:10.042Z,3.90
2022-12-31T20:06:38.968Z,3.43
2022-12-31T20:09:06.711Z,4.20
2022-12-31T20:11:34.535Z,3.13
2022-12-31T20:14:02.124Z,5.00
2022-12-31T20:16:31.729Z,3.63
2022-12-31T20:18:59.491Z,3.23
2022-12-31T20:21:28.878Z,2.40
2022-12-31T20:23:58.595Z,3.10
2022-12-31T20:26:26.736Z,6.07
2022-12-31T20:28:54.575Z,3.40
2022-12-31T20:31:24.695Z,2.60
2022-12-31T20:33:54.025Z,2.87
2022-12-31T20:36:21.890Z,4.97
2022-12-31T20:38:49.964Z,2.27
2022-12-31T20:41:20.537Z,5.57
2022-12-31T20:43:49.576Z,2.63
2022-12-31T20:46:19.445Z,3.17
2022-12-31T20:48:48.924Z,2.83
2022-12-31T20:51:17.980Z,3.00
2022-12-31T20:53:48.195Z,1.87
2022-12-31T20:56:15.871Z,2.53
2022-12-31T20:58:45.130Z,4.33
2022-12-31T21:01:13.393Z,2.53
2022-12-31T21:06:31.345Z,3.07
2022-12-31T21:09:00.895Z,2.43
2022-12-31T21:11:46.146Z,2.10
2022-12-31T21:14:15.799Z,3.17
2022-12-31T21:16:43.448Z,3.73
2022-12-31T21:19:10.991Z,3.23
2022-12-31T21:21:39.023Z,3.90
2022-12-31T21:24:07.125Z,4.10
2022-12-31T21:26:35.342Z,3.80
2022-12-31T21:29:03.513Z,2.60
2022-12-31T21:31:32.464Z,3.23
2022-12-31T21:34:00.042Z,3.27
2022-12-31T21:36:27.563Z,2.27
2022-12-31T21:38:55.085Z,3.10
2022-12-31T21:41:40.226Z,3.63
2022-12-31T21:44:07.770Z,2.90
2022-12-31T21:46:36.724Z,2.93
2022-12-31T21:49:04.537Z,4.27
2022-12-31T21:51:32.081Z,4.57
2022-12-31T21:53:59.609Z,2.53
2022-12-31T21:56:26.174Z,3.43
2022-12-31T21:59:09.273Z,2.73
2022-12-31T22:01:55.739Z,4.60
2022-12-31T22:05:00.272Z,5.23
2022-12-31T22:07:10.854Z,4.90
2022-12-31T22:09:38.394Z,4.83
2022-12-31T22:12:06.823Z,2.87
2022-12-31T22:14:34.354Z,2.80
2022-12-31T22:17:03.217Z,2.53
2022-12-31T22:19:30.729Z,3.27
2022-12-31T22:21:58.233Z,2.67
2022-12-31T22:24:25.761Z,7.00
2022-12-31T22:26:55.611Z,4.33
2022-12-31T22:29:23.588Z,5.03
2022-12-31T22:31:51.094Z,7.43
2022-12-31T22:34:19.918Z,3.97
2022-12-31T22:36:47.439Z,5.20
2022-12-31T22:39:43.242Z,2.73
2022-12-31T22:42:03.851Z,5.20
2022-12-31T22:44:31.510Z,3.67
2022-12-31T22:46:59.219Z,4.03
2022-12-31T22:49:28.072Z,4.17
2022-12-31T22:51:59.913Z,3.77
2022-12-31T22:54:30.498Z,4.20
2022-12-31T22:56:58.017Z,3.77
2022-12-31T22:59:25.490Z,5.47
2022-12-31T23:01:52.986Z,4.57
2022-12-31T23:04:20.503Z,7.80
2022-12-31T23:06:49.505Z,9.50
2022-12-31T23:09:36.181Z,55.47
2022-12-31T23:12:04.596Z,30.20
2022-12-31T23:14:49.560Z,18.07
2022-12-31T23:17:37.226Z,13.20
2022-12-31T23:20:23.381Z,18.97
2022-12-31T23:23:08.664Z,16.80
2022-12-31T23:25:38.741Z,16.53
2022-12-31T23:28:07.290Z,13.47
2022-12-31T23:30:35.588Z,9.80
2022-12-31T23:33:03.148Z,11.20
2022-12-31T23:35:30.652Z,7.60
2022-12-31T23:37:59.540Z,9.60
2022-12-31T23:40:34.159Z,10.47
2022-12-31T23:43:03.770Z,12.23
2022-12-31T23:45:33.454Z,8.83
2022-12-31T23:48:01.846Z,9.77
2022-12-31T23:50:29.577Z,7.40
2022-12-31T23:52:57.084Z,12.77
2022-12-31T23:55:25.927Z,10.20
2022-12-31T23:57:53.471Z,7.73
